createdAt,value
2018-04-25T00:02:15.541Z,10.30
2018-04-25T00:04:43.036Z,10.30
2018-04-25T00:07:11.332Z,10.10
2018-04-25T00:09:38.846Z,10.10
2018-04-25T00:12:06.315Z,10.10
2018-04-25T00:14:34.580Z,10.00
2018-04-25T00:17:02.311Z,10.00
2018-04-25T00:19:30.075Z,10.10
2018-04-25T00:21:57.570Z,10.10
2018-04-25T00:24:25.084Z,10.10
2018-04-25T00:26:53.315Z,10.00
2018-04-25T00:29:21.029Z,10.00
2018-04-25T00:31:48.793Z,9.90
2018-04-25T00:34:16.392Z,9.90
2018-04-25T00:36:43.863Z,9.80
2018-04-25T00:39:11.574Z,9.80
2018-04-25T00:41:39.336Z,9.70
2018-04-25T00:44:06.819Z,9.70
2018-04-25T00:46:34.313Z,9.70
2018-04-25T00:49:02.579Z,9.60
2018-04-25T00:51:30.048Z,9.60
2018-04-25T00:53:58.564Z,9.60
2018-04-25T00:56:26.327Z,9.50
2018-04-25T00:58:53.799Z,9.50
2018-04-25T01:01:21.288Z,9.50
2018-04-25T01:03:49.535Z,9.50
2018-04-25T01:06:17.013Z,9.50
2018-04-25T01:08:44.591Z,9.50
2018-04-25T01:11:12.831Z,9.50
2018-04-25T01:13:40.320Z,9.50
2018-04-25T01:16:08.560Z,9.50
2018-04-25T01:18:36.057Z,9.40
2018-04-25T01:21:04.579Z,9.30
2018-04-25T01:23:32.345Z,9.30
2018-04-25T01:26:06.714Z,9.30
2018-04-25T01:28:41.079Z,9.30
2018-04-25T01:31:20.896Z,9.30
2018-04-25T01:33:55.052Z,9.10
2018-04-25T01:36:27.163Z,9.10
2018-04-25T01:38:55.413Z,9.00
2018-04-25T01:41:22.900Z,9.00
2018-04-25T01:43:51.423Z,9.00
2018-04-25T01:46:38.028Z,8.90
2018-04-25T02:02:25.297Z,8.70
2018-04-25T02:04:53.564Z,8.70
2018-04-25T02:07:23.338Z,8.80
2018-04-25T02:09:51.577Z,8.80
2018-04-25T02:12:19.111Z,8.90
2018-04-25T02:14:47.352Z,8.90
2018-04-25T02:17:14.844Z,8.90
2018-04-25T02:19:43.368Z,8.90
2018-04-25T02:22:10.884Z,8.90
2018-04-25T02:24:39.157Z,8.90
2018-04-25T02:27:07.656Z,8.90
2018-04-25T02:29:35.451Z,8.90
2018-04-25T02:32:02.940Z,8.90
2018-04-25T02:34:30.431Z,8.90
2018-04-25T02:36:57.908Z,8.90
2018-04-25T02:39:25.508Z,8.90
2018-04-25T02:41:52.921Z,8.90
2018-04-25T02:44:20.420Z,8.90
2018-04-25T02:46:47.906Z,8.80
2018-04-25T02:49:16.159Z,8.80
2018-04-25T02:51:45.428Z,8.80
2018-04-25T02:54:13.188Z,8.80
2018-04-25T02:56:40.668Z,8.70
2018-04-25T02:59:08.199Z,8.70
2018-04-25T03:01:35.967Z,8.70
2018-04-25T03:04:03.441Z,8.70
2018-04-25T03:06:30.939Z,8.70
2018-04-25T03:08:59.916Z,8.70
2018-04-25T03:11:27.404Z,8.70
2018-04-25T03:13:54.875Z,8.70
2018-04-25T03:16:22.363Z,8.80
2018-04-25T03:18:49.839Z,8.70
2018-04-25T03:21:17.321Z,8.60
2018-04-25T03:23:45.578Z,8.60
2018-04-25T03:26:13.399Z,8.60
2018-04-25T03:28:40.900Z,8.60
2018-04-25T03:31:08.382Z,8.60
2018-04-25T03:33:36.651Z,8.60
2018-04-25T03:36:04.896Z,8.60
2018-04-25T03:38:32.628Z,8.50
2018-04-25T03:41:00.193Z,8.60
2018-04-25T03:43:27.705Z,8.60
2018-04-25T03:45:55.964Z,8.60
2018-04-25T03:48:23.436Z,8.60
2018-04-25T03:50:51.699Z,8.40
2018-04-25T03:53:19.181Z,8.40
2018-04-25T03:55:47.692Z,8.40
2018-04-25T03:58:15.163Z,8.40
2018-04-25T04:00:42.912Z,8.50
2018-04-25T04:03:10.426Z,8.50
2018-04-25T04:05:38.667Z,8.70
2018-04-25T04:08:06.164Z,8.70
2018-04-25T04:10:34.411Z,9.00
2018-04-25T04:13:01.984Z,9.00
2018-04-25T04:15:29.451Z,9.10
2018-04-25T04:17:57.727Z,9.20
2018-04-25T04:20:25.975Z,9.20
2018-04-25T04:22:53.459Z,9.20
2018-04-25T04:25:21.735Z,9.20
2018-04-25T04:27:50.002Z,9.30
2018-04-25T04:30:17.721Z,9.20
2018-04-25T04:32:45.248Z,9.30
2018-04-25T04:35:14.075Z,9.30
2018-04-25T04:37:41.551Z,9.30
2018-04-25T04:40:09.139Z,9.40
2018-04-25T04:42:37.663Z,9.60
2018-04-25T04:45:05.151Z,9.60
2018-04-25T04:47:32.630Z,9.50
2018-04-25T04:50:00.192Z,9.60
2018-04-25T04:52:27.664Z,9.80
2018-04-25T04:54:55.919Z,10.30
2018-04-25T04:57:23.739Z,10.30
2018-04-25T04:59:51.436Z,10.70
2018-04-25T05:02:18.928Z,11.40
2018-04-25T05:04:47.439Z,13.70
2018-04-25T05:07:14.928Z,13.60
2018-04-25T05:09:42.404Z,14.80
2018-04-25T05:12:10.936Z,16.10
2018-04-25T05:14:38.412Z,16.10
2018-04-25T05:17:06.156Z,16.40
2018-04-25T05:19:33.771Z,16.30
2018-04-25T05:22:02.387Z,17.70
2018-04-25T05:24:29.986Z,17.60
2018-04-25T05:26:57.367Z,17.60
2018-04-25T05:29:24.859Z,16.20
2018-04-25T05:31:52.349Z,15.70
2018-04-25T05:34:19.839Z,16.10
2018-04-25T05:36:47.552Z,17.00
2018-04-25T05:39:15.049Z,17.20
2018-04-25T05:41:44.160Z,15.90
2018-04-25T05:44:12.404Z,15.30
2018-04-25T05:46:39.896Z,15.30
2018-04-25T05:49:08.140Z,15.10
2018-04-25T05:51:35.644Z,15.10
2018-04-25T05:54:03.432Z,15.50
2018-04-25T05:56:30.944Z,15.40
2018-04-25T05:58:59.472Z,14.90
2018-04-25T06:01:26.951Z,14.80
2018-04-25T06:03:54.441Z,14.90
2018-04-25T06:06:22.689Z,16.00
2018-04-25T06:08:50.183Z,15.90
2018-04-25T06:11:18.423Z,19.40
2018-04-25T06:13:45.952Z,19.40
2018-04-25T06:16:13.428Z,21.20
2018-04-25T06:18:40.928Z,21.70
2018-04-25T06:21:09.184Z,21.40
2018-04-25T06:23:36.695Z,21.30
2018-04-25T06:26:04.216Z,21.80
2018-04-25T06:28:32.463Z,21.70
2018-04-25T06:30:59.955Z,21.60
2018-04-25T06:33:28.195Z,20.30
2018-04-25T06:35:55.687Z,20.20
2018-04-25T06:38:23.932Z,21.70
2018-04-25T06:40:51.408Z,21.70
2018-04-25T06:43:19.940Z,20.20
2018-04-25T06:45:47.424Z,20.10
2018-04-25T06:48:15.683Z,18.30
2018-04-25T06:50:43.515Z,18.20
2018-04-25T06:53:10.936Z,18.10
2018-04-25T06:55:38.416Z,18.10
2018-04-25T06:58:06.932Z,17.80
2018-04-25T07:00:34.695Z,17.80
2018-04-25T07:03:02.176Z,18.00
2018-04-25T07:05:30.019Z,18.40
2018-04-25T07:07:57.543Z,18.40
2018-04-25T07:10:26.729Z,19.90
2018-04-25T07:12:54.971Z,20.40
2018-04-25T07:15:22.572Z,20.40
2018-04-25T07:17:50.811Z,22.50
2018-04-25T07:20:18.311Z,22.50
2018-04-25T07:22:46.552Z,24.30
2018-04-25T07:25:14.033Z,25.50
2018-04-25T07:27:42.555Z,26.30
2018-04-25T07:30:10.028Z,26.30
2018-04-25T07:32:37.776Z,25.40
2018-04-25T07:35:05.251Z,25.00
2018-04-25T07:37:32.740Z,24.00
2018-04-25T07:40:00.212Z,24.20
2018-04-25T07:42:28.467Z,24.10
2018-04-25T07:44:56.188Z,24.10
2018-04-25T07:47:23.680Z,23.40
2018-04-25T07:49:51.155Z,23.70
2018-04-25T07:52:19.487Z,25.60
2018-04-25T07:54:47.683Z,24.40
2018-04-25T07:57:15.156Z,24.40
2018-04-25T07:59:42.647Z,22.80
2018-04-25T08:02:10.117Z,22.00
2018-04-25T08:04:37.618Z,21.40
2018-04-25T08:07:05.088Z,20.60
2018-04-25T08:09:33.371Z,20.10
2018-04-25T08:12:01.621Z,20.30
2018-04-25T08:14:41.203Z,20.30
2018-04-25T08:17:21.343Z,20.10
2018-04-25T08:33:23.104Z,22.60
2018-04-25T08:35:51.588Z,23.90
2018-04-25T08:38:19.060Z,23.90
2018-04-25T08:40:46.532Z,23.60
2018-04-25T08:43:14.020Z,23.30
2018-04-25T08:45:41.496Z,23.20
2018-04-25T08:48:09.756Z,22.90
2018-04-25T08:50:37.235Z,22.90
2018-04-25T08:53:05.755Z,22.50
2018-04-25T08:55:33.519Z,22.50
2018-04-25T08:58:00.999Z,22.80
2018-04-25T09:00:28.488Z,23.40
2018-04-25T09:02:56.727Z,24.00
2018-04-25T09:05:24.215Z,24.00
2018-04-25T09:07:51.692Z,24.30
2018-04-25T09:10:19.956Z,24.80
2018-04-25T09:12:48.479Z,25.70
2018-04-25T09:15:15.992Z,25.70
2018-04-25T09:17:44.519Z,25.00
2018-04-25T09:20:12.018Z,25.00
2018-04-25T09:22:39.503Z,24.70
2018-04-25T09:25:07.745Z,23.90
2018-04-25T09:27:35.472Z,23.90
2018-04-25T09:30:02.952Z,23.50
2018-04-25T09:32:30.543Z,23.30
2018-04-25T09:34:58.783Z,22.80
2018-04-25T09:37:26.264Z,22.70
2018-04-25T09:39:54.524Z,23.30
2018-04-25T09:42:22.028Z,23.20
2018-04-25T09:44:49.820Z,24.00
2018-04-25T09:47:17.296Z,24.60
2018-04-25T09:49:44.787Z,24.90
2018-04-25T09:52:12.263Z,25.30
2018-04-25T09:54:39.757Z,26.00
2018-04-25T09:57:07.248Z,26.30
2018-04-25T09:59:34.971Z,25.90
2018-04-25T10:02:02.736Z,26.10
2018-04-25T10:04:30.208Z,26.20
2018-04-25T10:06:57.699Z,26.00
2018-04-25T10:09:25.411Z,25.30
2018-04-25T10:11:52.899Z,25.10
2018-04-25T10:14:20.372Z,25.30
2018-04-25T10:16:49.376Z,24.90
2018-04-25T10:19:17.628Z,24.30
2018-04-25T10:21:45.103Z,24.30
2018-04-25T10:24:13.365Z,24.60
2018-04-25T10:26:41.911Z,25.00
2018-04-25T10:29:09.520Z,24.90
2018-04-25T10:31:37.336Z,25.50
2018-04-25T10:34:04.852Z,25.90
2018-04-25T10:36:33.097Z,25.80
2018-04-25T10:39:00.688Z,25.70
2018-04-25T10:41:28.084Z,25.20
2018-04-25T10:43:55.564Z,24.60
2018-04-25T10:46:23.320Z,24.80
2018-04-25T10:48:50.800Z,24.60
2018-04-25T10:51:18.295Z,25.20
2018-04-25T10:53:45.774Z,24.70
2018-04-25T10:56:13.274Z,24.20
2018-04-25T10:58:40.747Z,24.00
2018-04-25T11:01:09.007Z,24.60
2018-04-25T11:03:36.483Z,24.50
2018-04-25T11:06:04.727Z,24.10
2018-04-25T11:08:32.230Z,24.00
2018-04-25T11:11:00.020Z,23.40
2018-04-25T11:13:27.508Z,23.20
2018-04-25T11:15:55.247Z,22.80
2018-04-25T11:18:22.736Z,22.80
2018-04-25T11:20:50.211Z,22.70
2018-04-25T11:23:18.490Z,22.20
2018-04-25T11:25:47.011Z,21.70
2018-04-25T11:28:14.487Z,21.70
2018-04-25T11:30:41.983Z,21.60
2018-04-25T11:33:10.225Z,21.70
2018-04-25T11:35:37.713Z,21.70
2018-04-25T11:38:06.000Z,21.20
2018-04-25T11:40:34.264Z,21.30
2018-04-25T11:43:02.507Z,21.40
2018-04-25T11:45:30.000Z,21.40
2018-04-25T11:47:58.525Z,21.30
2018-04-25T11:50:26.040Z,21.30
2018-04-25T11:52:54.300Z,21.20
2018-04-25T11:55:21.772Z,21.20
2018-04-25T11:57:50.032Z,21.40
2018-04-25T12:00:17.507Z,21.40
2018-04-25T12:02:45.834Z,21.50
2018-04-25T12:05:13.312Z,21.50
2018-04-25T12:07:40.800Z,21.40
2018-04-25T12:10:09.056Z,21.30
2018-04-25T12:12:36.948Z,21.30
2018-04-25T12:15:05.208Z,21.50
2018-04-25T12:17:33.492Z,21.90
2018-04-25T12:20:01.748Z,21.90
2018-04-25T12:22:29.223Z,22.00
2018-04-25T12:24:57.484Z,22.30
2018-04-25T12:27:24.960Z,22.30
2018-04-25T12:29:53.478Z,23.20
2018-04-25T12:32:20.971Z,23.20
2018-04-25T12:34:48.451Z,24.00
2018-04-25T12:37:16.708Z,24.60
2018-04-25T12:39:44.959Z,24.70
2018-04-25T12:42:12.460Z,24.60
2018-04-25T12:44:40.776Z,24.60
2018-04-25T12:47:08.306Z,24.60
2018-04-25T12:49:36.107Z,24.30
2018-04-25T12:52:03.579Z,24.70
2018-04-25T12:54:31.297Z,25.20
2018-04-25T12:56:58.839Z,25.60
2018-04-25T12:59:27.100Z,25.90
2018-04-25T13:01:54.923Z,25.90
2018-04-25T13:04:22.437Z,25.30
2018-04-25T13:06:50.684Z,24.60
2018-04-25T13:09:18.184Z,24.60
2018-04-25T13:11:46.428Z,23.80
2018-04-25T13:14:13.899Z,23.80
2018-04-25T13:16:42.163Z,24.10
2018-04-25T13:19:09.643Z,24.00
2018-04-25T13:21:37.899Z,23.60
2018-04-25T13:24:05.371Z,23.60
2018-04-25T13:26:33.627Z,23.10
2018-04-25T13:29:01.103Z,23.10
2018-04-25T13:31:29.379Z,23.10
2018-04-25T13:33:57.628Z,23.30
2018-04-25T13:36:25.175Z,23.30
2018-04-25T13:38:53.369Z,22.90
2018-04-25T13:41:21.091Z,22.90
2018-04-25T13:43:48.584Z,22.50
2018-04-25T13:46:16.060Z,22.20
2018-04-25T13:48:44.367Z,21.50
2018-04-25T13:51:11.851Z,21.50
2018-04-25T13:53:39.325Z,21.50
2018-04-25T13:56:06.819Z,21.50
2018-04-25T13:58:35.059Z,21.30
2018-04-25T14:01:02.556Z,21.30
2018-04-25T14:03:30.036Z,21.30
2018-04-25T14:05:57.809Z,21.20
2018-04-25T14:08:25.323Z,21.20
2018-04-25T14:10:53.588Z,21.30
2018-04-25T14:13:21.400Z,21.30
2018-04-25T14:15:49.597Z,21.10
2018-04-25T14:18:17.104Z,20.70
2018-04-25T14:20:46.464Z,20.50
2018-04-25T14:23:13.997Z,20.50
2018-04-25T14:25:41.616Z,20.80
2018-04-25T14:28:09.868Z,20.90
2018-04-25T14:30:37.344Z,20.90
2018-04-25T14:33:05.608Z,20.70
2018-04-25T14:35:33.785Z,20.60
2018-04-25T14:38:02.044Z,20.70
2018-04-25T14:40:30.796Z,20.70
2018-04-25T14:42:58.304Z,20.80
2018-04-25T14:45:25.875Z,20.90
2018-04-25T14:47:54.335Z,21.10
2018-04-25T14:50:22.297Z,21.10
2018-04-25T14:52:50.704Z,21.20
2018-04-25T14:55:19.228Z,21.20
2018-04-25T14:57:46.704Z,21.20
2018-04-25T15:00:14.238Z,21.20
2018-04-25T15:02:42.319Z,21.40
2018-04-25T15:05:09.980Z,21.30
2018-04-25T15:07:37.499Z,21.20
2018-04-25T15:10:05.742Z,20.70
2018-04-25T15:12:33.579Z,20.70
2018-04-25T15:15:01.062Z,20.40
2018-04-25T15:17:28.856Z,20.30
2018-04-25T15:19:57.197Z,20.30
2018-04-25T15:22:24.936Z,20.20
2018-04-25T15:24:52.462Z,20.10
2018-04-25T15:27:20.977Z,20.10
2018-04-25T15:29:50.622Z,20.10
2018-04-25T15:32:18.172Z,20.20
2018-04-25T15:34:46.400Z,20.60
2018-04-25T15:37:13.884Z,20.60
2018-04-25T15:39:41.448Z,20.70
2018-04-25T15:42:08.931Z,20.70
2018-04-25T15:44:37.921Z,20.50
2018-04-25T15:47:05.748Z,20.50
2018-04-25T15:49:33.268Z,20.70
2018-04-25T15:52:01.792Z,20.60
2018-04-25T15:54:29.275Z,20.60
2018-04-25T15:56:56.800Z,20.70
2018-04-25T15:59:24.571Z,20.60
2018-04-25T16:01:52.335Z,20.50
2018-04-25T16:04:19.808Z,20.40
2018-04-25T16:06:47.308Z,20.10
2018-04-25T16:09:15.580Z,19.90
2018-04-25T16:11:44.108Z,19.60
2018-04-25T16:14:11.597Z,19.60
2018-04-25T16:16:39.330Z,19.60
2018-04-25T16:19:07.096Z,19.50
2018-04-25T16:21:34.645Z,19.40
2018-04-25T16:24:02.144Z,19.30
2018-04-25T16:26:29.620Z,19.30
2018-04-25T16:28:57.884Z,19.10
2018-04-25T16:31:25.359Z,19.10
2018-04-25T16:33:53.607Z,19.00
2018-04-25T16:36:21.116Z,18.90
2018-04-25T16:38:48.600Z,19.00
2018-04-25T16:41:16.351Z,18.90
2018-04-25T16:43:44.195Z,18.90
2018-04-25T16:46:11.629Z,18.60
2018-04-25T16:48:39.880Z,18.60
2018-04-25T16:51:07.383Z,18.50
2018-04-25T16:53:34.864Z,18.50
2018-04-25T16:56:02.628Z,18.40
2018-04-25T16:58:30.182Z,18.10
2018-04-25T17:00:57.663Z,18.00
2018-04-25T17:03:25.227Z,18.10
2018-04-25T17:05:52.755Z,18.10
2018-04-25T17:08:20.247Z,18.10
2018-04-25T17:10:47.736Z,18.00
2018-04-25T17:13:15.994Z,17.90
2018-04-25T17:15:43.484Z,17.90
2018-04-25T17:18:10.964Z,17.80
2018-04-25T17:20:38.501Z,17.60
2018-04-25T17:23:06.013Z,17.50
2018-04-25T17:25:33.744Z,17.30
2018-04-25T17:28:01.507Z,17.30
2018-04-25T17:30:28.996Z,17.20
2018-04-25T17:32:56.484Z,17.10
2018-04-25T17:35:24.747Z,17.00
2018-04-25T17:37:52.223Z,17.00
2018-04-25T17:40:20.688Z,16.90
2018-04-25T17:42:49.008Z,16.90
2018-04-25T17:45:16.524Z,16.90
2018-04-25T17:47:44.788Z,16.80
2018-04-25T17:50:12.272Z,16.80
2018-04-25T17:52:40.532Z,16.70
2018-04-25T17:55:08.789Z,16.70
2018-04-25T17:57:36.444Z,16.70
2018-04-25T18:00:04.009Z,16.70
2018-04-25T18:02:32.991Z,16.50
2018-04-25T18:05:00.488Z,16.50
2018-04-25T18:07:28.756Z,16.40
2018-04-25T18:09:57.015Z,16.40
2018-04-25T18:12:24.591Z,16.30
2018-04-25T18:14:52.847Z,16.30
2018-04-25T18:17:20.323Z,16.30
2018-04-25T18:19:48.606Z,16.20
2018-04-25T18:22:16.858Z,16.20
2018-04-25T18:24:44.436Z,16.20
2018-04-25T18:27:12.693Z,16.10
2018-04-25T18:29:40.171Z,16.10
2018-04-25T18:32:08.453Z,16.00
2018-04-25T18:34:36.756Z,15.90
2018-04-25T18:37:04.295Z,15.90
2018-04-25T18:39:31.768Z,15.80
2018-04-25T18:41:59.263Z,15.70
2018-04-25T18:44:26.736Z,15.70
2018-04-25T18:46:54.528Z,15.70
2018-04-25T18:49:23.049Z,15.60
2018-04-25T18:51:50.803Z,15.60
2018-04-25T18:54:18.292Z,15.50
2018-04-25T18:56:47.318Z,15.40
2018-04-25T18:59:15.582Z,15.30
2018-04-25T19:01:43.825Z,15.30
2018-04-25T19:04:11.307Z,15.30
2018-04-25T19:06:39.128Z,15.30
2018-04-25T19:09:06.600Z,15.30
2018-04-25T19:11:34.091Z,15.30
2018-04-25T19:14:02.336Z,15.20
2018-04-25T19:16:29.833Z,15.20
2018-04-25T19:18:58.080Z,15.20
2018-04-25T19:21:26.399Z,15.20
2018-04-25T19:23:54.188Z,15.10
2018-04-25T19:26:21.663Z,15.20
2018-04-25T19:28:49.408Z,15.20
2018-04-25T19:31:16.887Z,15.10
2018-04-25T19:33:44.403Z,15.20
2018-04-25T19:36:11.922Z,15.20
2018-04-25T19:38:39.420Z,15.10
2018-04-25T19:41:07.203Z,15.10
2018-04-25T19:43:34.748Z,15.10
2018-04-25T19:46:02.527Z,15.00
2018-04-25T19:48:30.024Z,15.00
2018-04-25T19:50:57.560Z,15.00
2018-04-25T19:53:25.033Z,15.00
2018-04-25T19:55:52.617Z,15.00
2018-04-25T19:58:20.134Z,15.10
2018-04-25T20:00:47.647Z,15.10
2018-04-25T20:03:15.883Z,15.10
2018-04-25T20:05:43.384Z,15.00
2018-04-25T20:08:11.027Z,15.00
2018-04-25T20:10:38.611Z,14.90
2018-04-25T20:13:06.187Z,14.90
2018-04-25T20:15:33.675Z,14.80
2018-04-25T20:18:01.168Z,14.70
2018-04-25T20:20:29.421Z,14.60
2018-04-25T20:22:57.697Z,14.60
2018-04-25T20:25:25.954Z,14.50
2018-04-25T20:27:53.586Z,14.50
2018-04-25T20:30:21.092Z,14.50
2018-04-25T20:32:48.636Z,14.40
2018-04-25T20:35:16.472Z,14.40
2018-04-25T20:37:43.951Z,14.40
2018-04-25T20:40:11.710Z,14.30
2018-04-25T20:42:39.221Z,14.30
2018-04-25T20:45:07.482Z,14.20
2018-04-25T20:47:35.900Z,14.10
2018-04-25T20:50:03.388Z,14.00
2018-04-25T20:52:32.234Z,14.00
2018-04-25T20:55:00.599Z,13.80
2018-04-25T20:57:29.014Z,13.80
2018-04-25T20:59:56.628Z,13.80
2018-04-25T21:02:24.910Z,13.70
2018-04-25T21:04:53.428Z,13.70
2018-04-25T21:07:21.192Z,13.60
2018-04-25T21:09:48.690Z,13.70
2018-04-25T21:12:16.987Z,13.60
2018-04-25T21:14:45.256Z,13.60
2018-04-25T21:17:13.501Z,13.70
2018-04-25T21:19:40.987Z,13.60
2018-04-25T21:22:09.512Z,13.70
2018-04-25T21:24:37.009Z,13.70
2018-04-25T21:27:05.253Z,13.70
2018-04-25T21:29:33.012Z,13.70
2018-04-25T21:32:00.488Z,13.70
2018-04-25T21:34:28.196Z,13.70
2018-04-25T21:36:56.452Z,13.60
2018-04-25T21:39:24.272Z,13.60
2018-04-25T21:41:51.788Z,13.60
2018-04-25T21:44:20.040Z,13.60
2018-04-25T21:46:47.531Z,13.60
2018-04-25T21:49:15.773Z,13.60
2018-04-25T21:51:46.092Z,13.60
2018-04-25T21:54:16.426Z,13.60
2018-04-25T21:56:46.016Z,13.60
2018-04-25T21:59:17.066Z,13.60
2018-04-25T22:01:46.949Z,13.60
2018-04-25T22:04:17.824Z,13.60
2018-04-25T22:06:47.228Z,13.60
2018-04-25T22:09:16.524Z,13.60
2018-04-25T22:11:46.589Z,13.50
2018-04-25T22:14:16.306Z,13.50
2018-04-25T22:16:45.846Z,13.50
2018-04-25T22:19:14.784Z,13.40
2018-04-25T22:21:44.351Z,13.50
2018-04-25T22:24:13.119Z,13.50
2018-04-25T22:26:41.382Z,13.30
2018-04-25T22:29:08.876Z,13.30
2018-04-25T22:31:36.352Z,13.10
2018-04-25T22:34:04.630Z,12.80
2018-04-25T22:36:32.872Z,12.70
2018-04-25T22:39:00.372Z,12.70
2018-04-25T22:41:28.643Z,12.50
2018-04-25T22:43:56.880Z,12.40
2018-04-25T22:46:24.373Z,12.40
2018-04-25T22:48:52.697Z,12.30
2018-04-25T22:51:20.124Z,12.30
2018-04-25T22:53:47.656Z,12.20
2018-04-25T22:56:15.907Z,12.20
2018-04-25T22:58:43.384Z,12.20
2018-04-25T23:01:10.875Z,12.20
2018-04-25T23:03:38.352Z,12.10
2018-04-25T23:06:05.828Z,12.10
2018-04-25T23:08:33.458Z,12.10
2018-04-25T23:11:00.934Z,12.10
2018-04-25T23:13:28.423Z,12.10
2018-04-25T23:15:56.148Z,12.10
2018-04-25T23:18:23.639Z,12.10
2018-04-25T23:20:52.615Z,12.00
2018-04-25T23:23:20.108Z,12.00
2018-04-25T23:25:48.419Z,11.90
2018-04-25T23:28:16.136Z,11.90
2018-04-25T23:30:43.636Z,11.90
2018-04-25T23:33:11.154Z,11.90
2018-04-25T23:35:38.644Z,11.90
2018-04-25T23:38:06.120Z,11.80
2018-04-25T23:40:33.615Z,11.80
2018-04-25T23:43:01.092Z,11.80
2018-04-25T23:45:29.368Z,11.70
2018-04-25T23:47:57.614Z,11.70
2018-04-25T23:50:26.672Z,11.70
2018-04-25T23:52:54.164Z,11.70
2018-04-25T23:55:21.689Z,11.70
2018-04-25T23:57:49.212Z,11.60
